ULLI/LED METAR and TAF weather

Enter ICAO airport designator
Station Type Date Time Source
ULLI METAR 2021/04/13 22:30 UTC NOAA

ULLI 132230Z 30007MPS 9999 SCT043 04/M01 Q1019 R28L/090060 R28R/190055 NOSIG


Station Type Date Time Source
ULLI Decoded METAR 2021/04/13 22:30 UTC NOAA

St. Peterburg, Russia (ULLI) 59-58N 030-18E 6M
Apr 13, 2021 - 06:30 PM EDT / 2021.04.13 2230 UTC
Wind: from the WNW (300 degrees) at 16 MPH (14 KT):0
Visibility: greater than 7 mile(s):0
Sky conditions: partly cloudy
Temperature: 39 F (4 C)
Dew Point: 30 F (-1 C)
Relative Humidity: 69%
Pressure (altimeter): 30.09 in. Hg (1019 hPa)
ob: ULLI 132230Z 30007MPS 9999 SCT043 04/M01 Q1019 R28L/090060 R28R/190055 NOSIG
cycle: 22

Station Type Date Time Source
ULLI TAF 2021/04/13 21:21 UTC NOAA

TAF TAF ULLI 131953Z 1321/1421 27005G10MPS 9999 BKN020
TEMPO 1321/1403 29007G12MPS 6000 -SHRA BKN016 BKN020CB
TEMPO 1403/1406 6000 -SHRA BKN011 BKN017CB

Example: see airport list